createdAt,value
2024-04-24T00:00:04.107Z,9.99
2024-04-24T00:00:34.939Z,9.95
2024-04-24T00:01:05.771Z,9.96
2024-04-24T00:01:36.649Z,9.96
2024-04-24T00:02:07.738Z,9.93
2024-04-24T00:02:38.670Z,9.98
2024-04-24T00:03:10.356Z,9.98
2024-04-24T00:03:41.614Z,9.95
2024-04-24T00:04:12.477Z,9.97
2024-04-24T00:04:43.350Z,9.99
2024-04-24T00:05:14.189Z,9.98
2024-04-24T00:05:45.046Z,9.99
2024-04-24T00:06:16.521Z,9.97
2024-04-24T00:06:47.326Z,9.86
2024-04-24T00:07:18.302Z,9.90
2024-04-24T00:07:49.446Z,9.87
2024-04-24T00:08:20.275Z,9.81
2024-04-24T00:08:51.099Z,9.84
2024-04-24T00:09:21.946Z,9.85
2024-04-24T00:09:52.740Z,9.86
2024-04-24T00:10:23.594Z,9.87
2024-04-24T00:10:54.555Z,9.90
2024-04-24T00:11:26.961Z,9.91
2024-04-24T00:11:57.880Z,9.90
2024-04-24T00:12:28.792Z,9.91
2024-04-24T00:12:59.641Z,9.83
2024-04-24T00:13:30.451Z,9.92
2024-04-24T00:14:01.295Z,9.93
2024-04-24T00:14:32.353Z,9.92
2024-04-24T00:15:03.852Z,9.92
2024-04-24T00:15:34.966Z,9.90
2024-04-24T00:16:06.023Z,9.89
2024-04-24T00:16:36.922Z,9.89
2024-04-24T00:17:07.842Z,9.91
2024-04-24T00:17:38.690Z,9.93
2024-04-24T00:18:09.649Z,9.96
2024-04-24T00:18:41.434Z,9.91
2024-04-24T00:19:12.325Z,9.94
2024-04-24T00:19:43.235Z,9.95
2024-04-24T00:20:14.061Z,9.92
2024-04-24T00:20:44.977Z,9.98
2024-04-24T00:21:15.817Z,9.97
2024-04-24T00:21:46.619Z,9.98
2024-04-24T00:22:17.495Z,10.00
2024-04-24T00:22:48.522Z,9.97
2024-04-24T00:23:19.452Z,9.94
2024-04-24T00:23:50.348Z,9.96
2024-04-24T00:24:21.489Z,9.96
2024-04-24T00:24:52.266Z,9.93
2024-04-24T00:25:23.092Z,9.91
2024-04-24T00:25:57.036Z,9.90
2024-04-24T00:26:28.070Z,9.97
2024-04-24T00:26:59.396Z,9.99
2024-04-24T00:27:30.246Z,10.00
2024-04-24T00:28:01.244Z,10.04
2024-04-24T00:28:32.378Z,10.04
2024-04-24T00:29:03.330Z,10.06
2024-04-24T00:29:34.210Z,10.06
2024-04-24T00:30:05.548Z,10.02
2024-04-24T00:30:36.374Z,10.04
2024-04-24T00:31:07.374Z,10.07
2024-04-24T00:31:38.193Z,10.03
2024-04-24T00:32:09.139Z,10.05
2024-04-24T00:32:40.638Z,10.03
2024-04-24T00:33:11.725Z,10.05
2024-04-24T00:33:42.691Z,10.04
2024-04-24T00:34:13.600Z,10.05
2024-04-24T00:34:44.598Z,10.00
2024-04-24T00:35:15.569Z,10.03
2024-04-24T00:35:46.507Z,10.03
2024-04-24T00:36:17.385Z,10.00
2024-04-24T00:36:48.171Z,10.04
2024-04-24T00:37:18.965Z,10.01
2024-04-24T00:37:49.791Z,10.03
2024-04-24T00:38:20.786Z,10.01
2024-04-24T00:38:51.703Z,10.05
2024-04-24T00:39:22.526Z,10.03
2024-04-24T00:39:53.312Z,10.04
2024-04-24T00:40:24.156Z,10.01
2024-04-24T00:40:55.001Z,10.03
2024-04-24T00:41:25.864Z,9.98
2024-04-24T00:41:56.735Z,10.02
2024-04-24T00:42:27.628Z,10.02
2024-04-24T00:42:58.448Z,9.99
2024-04-24T00:43:29.327Z,10.01
2024-04-24T00:44:00.161Z,10.02
2024-04-24T00:44:31.039Z,10.04
2024-04-24T00:45:01.908Z,10.03
2024-04-24T00:45:32.751Z,10.03
2024-04-24T00:46:04.502Z,10.06
2024-04-24T00:46:36.757Z,10.03
2024-04-24T00:47:08.629Z,10.00
2024-04-24T00:47:40.726Z,10.05
2024-04-24T00:48:12.297Z,10.01
2024-04-24T00:48:44.796Z,10.02
2024-04-24T00:49:18.788Z,10.05
2024-04-24T00:49:51.875Z,10.04
2024-04-24T00:50:24.211Z,10.04
2024-04-24T00:50:56.480Z,10.03
2024-04-24T00:51:29.002Z,10.04
2024-04-24T00:51:59.834Z,9.99
2024-04-24T00:52:30.850Z,9.99
2024-04-24T00:53:02.744Z,9.99
2024-04-24T00:53:34.747Z,10.00
2024-04-24T00:54:06.377Z,10.03
2024-04-24T00:54:37.721Z,10.02
2024-04-24T00:55:09.075Z,9.99
2024-04-24T00:55:40.830Z,10.03
2024-04-24T00:56:12.333Z,10.02
2024-04-24T00:56:43.685Z,10.01
2024-04-24T00:57:15.059Z,10.01
2024-04-24T00:57:46.021Z,9.96
2024-04-24T00:58:17.637Z,10.00
2024-04-24T00:58:50.809Z,9.94
2024-04-24T00:59:22.842Z,10.00
2024-04-24T00:59:53.740Z,9.96
2024-04-24T01:00:25.070Z,9.99
2024-04-24T01:00:56.744Z,9.97
2024-04-24T01:01:27.938Z,10.00
2024-04-24T01:01:59.043Z,10.00
2024-04-24T01:02:30.193Z,10.00
2024-04-24T01:03:04.301Z,10.01
2024-04-24T01:03:35.257Z,10.00
2024-04-24T01:04:06.100Z,9.98
2024-04-24T01:04:37.510Z,10.02
2024-04-24T01:05:08.391Z,9.99
2024-04-24T01:05:39.435Z,10.02
2024-04-24T01:06:10.240Z,10.01
2024-04-24T01:06:41.046Z,9.98
2024-04-24T01:07:12.046Z,10.00
2024-04-24T01:07:43.030Z,9.98
2024-04-24T01:08:13.891Z,9.98
2024-04-24T01:08:44.874Z,9.97
2024-04-24T01:09:15.696Z,9.99
2024-04-24T01:09:46.560Z,9.99
2024-04-24T01:10:18.586Z,9.97
2024-04-24T01:10:59.694Z,9.96
2024-04-24T01:11:33.903Z,9.97
2024-04-24T01:12:05.005Z,9.91
2024-04-24T01:12:35.954Z,9.99
2024-04-24T01:13:06.850Z,9.96
2024-04-24T01:13:37.663Z,9.98
2024-04-24T01:14:08.928Z,10.00
2024-04-24T01:14:40.044Z,10.01
2024-04-24T01:15:11.558Z,9.98
2024-04-24T01:15:44.344Z,10.00
2024-04-24T01:16:18.179Z,9.95
2024-04-24T01:16:49.884Z,9.98
2024-04-24T01:17:21.556Z,9.93
2024-04-24T01:17:54.981Z,9.98
2024-04-24T01:18:29.369Z,9.94
2024-04-24T01:19:07.300Z,9.93
2024-04-24T01:19:46.406Z,9.94
2024-04-24T01:20:22.834Z,9.91
2024-04-24T01:20:56.426Z,9.94
2024-04-24T01:21:44.911Z,9.91
2024-04-24T01:22:48.442Z,9.95
2024-04-24T01:23:32.406Z,9.97
2024-04-24T01:24:15.812Z,9.98
2024-04-24T01:25:20.553Z,10.02
2024-04-24T01:26:07.310Z,9.96
2024-04-24T01:26:43.844Z,10.00
2024-04-24T01:27:17.254Z,9.99
2024-04-24T01:27:48.726Z,9.97
2024-04-24T01:28:21.464Z,9.97
2024-04-24T01:28:53.702Z,9.94
2024-04-24T01:29:24.558Z,10.01
2024-04-24T01:29:55.630Z,9.99
2024-04-24T01:30:26.525Z,9.98
2024-04-24T01:31:00.056Z,10.02
2024-04-24T01:31:31.127Z,10.01
2024-04-24T01:32:02.110Z,10.03
2024-04-24T01:32:33.115Z,10.02
2024-04-24T01:33:04.599Z,9.95
2024-04-24T01:33:38.153Z,9.95
2024-04-24T01:34:09.196Z,9.97
2024-04-24T01:34:40.038Z,10.04
2024-04-24T01:35:10.931Z,9.94
2024-04-24T01:35:43.690Z,9.97
2024-04-24T01:36:14.493Z,9.90
2024-04-24T01:36:45.333Z,9.89
2024-04-24T01:37:16.153Z,9.87
2024-04-24T01:37:47.035Z,9.87
2024-04-24T01:38:18.019Z,9.84
2024-04-24T01:38:48.986Z,9.85
2024-04-24T01:39:19.918Z,9.89
2024-04-24T01:39:50.694Z,9.84
2024-04-24T01:40:21.585Z,9.84
2024-04-24T01:40:52.478Z,9.87
2024-04-24T01:41:23.424Z,9.80
2024-04-24T01:41:54.242Z,9.78
2024-04-24T01:42:25.036Z,9.84
2024-04-24T01:42:56.101Z,9.84
2024-04-24T01:43:27.001Z,9.84
2024-04-24T01:43:57.854Z,9.84
2024-04-24T01:44:28.772Z,9.83
2024-04-24T01:44:59.679Z,9.88
2024-04-24T01:45:30.579Z,9.84
2024-04-24T01:46:02.844Z,9.86
2024-04-24T01:46:33.645Z,9.81
2024-04-24T01:47:04.489Z,9.86
2024-04-24T01:47:35.541Z,9.87
2024-04-24T01:48:06.913Z,9.85
2024-04-24T01:48:37.883Z,9.83
2024-04-24T01:49:08.781Z,9.82
2024-04-24T01:49:39.590Z,9.82
2024-04-24T01:50:10.427Z,9.87
2024-04-24T01:50:41.344Z,9.84
2024-04-24T01:51:12.127Z,9.87
2024-04-24T01:51:42.973Z,9.87
2024-04-24T01:52:13.791Z,9.84
2024-04-24T01:52:44.568Z,9.85
2024-04-24T01:53:15.461Z,9.84
2024-04-24T01:53:46.307Z,9.84
2024-04-24T01:54:17.125Z,9.82
2024-04-24T01:54:48.059Z,9.89
2024-04-24T01:55:18.893Z,9.83
2024-04-24T01:55:49.712Z,9.87
2024-04-24T01:56:20.546Z,9.86
2024-04-24T01:56:51.686Z,9.87
2024-04-24T01:57:22.588Z,9.87
2024-04-24T01:57:53.408Z,9.84
2024-04-24T01:58:24.297Z,9.83
2024-04-24T01:58:55.128Z,9.81
2024-04-24T01:59:26.021Z,9.83
2024-04-24T01:59:56.850Z,9.83
2024-04-24T02:00:27.679Z,9.86
2024-04-24T02:00:58.555Z,9.87
2024-04-24T02:01:29.808Z,9.89
2024-04-24T02:02:00.695Z,9.91
2024-04-24T02:02:31.624Z,9.84
2024-04-24T02:03:02.617Z,9.81
2024-04-24T02:03:33.447Z,9.86
2024-04-24T02:04:04.429Z,9.87
2024-04-24T02:04:35.223Z,9.86
2024-04-24T02:05:06.390Z,9.88
2024-04-24T02:05:37.926Z,9.89
2024-04-24T02:06:08.729Z,9.92
2024-04-24T02:06:39.539Z,9.92
2024-04-24T02:07:10.300Z,9.86
2024-04-24T02:07:41.116Z,9.94
2024-04-24T02:08:11.941Z,9.93
2024-04-24T02:08:42.732Z,9.94
2024-04-24T02:09:13.543Z,9.94
2024-04-24T02:09:44.376Z,9.95
2024-04-24T02:10:15.235Z,9.96
2024-04-24T02:10:46.050Z,9.94
2024-04-24T02:11:20.253Z,9.91
2024-04-24T02:11:59.468Z,9.93
2024-04-24T02:12:38.447Z,9.94
2024-04-24T02:13:09.279Z,9.92
2024-04-24T02:13:40.177Z,9.92
2024-04-24T02:14:11.034Z,9.94
2024-04-24T02:14:41.826Z,9.91
2024-04-24T02:15:12.747Z,9.92
2024-04-24T02:15:43.551Z,9.91
2024-04-24T02:16:14.351Z,9.93
2024-04-24T02:16:45.331Z,9.95
2024-04-24T02:17:16.480Z,9.91
2024-04-24T02:17:47.496Z,9.94
2024-04-24T02:18:18.366Z,9.92
2024-04-24T02:18:49.576Z,9.94
2024-04-24T02:19:20.440Z,9.95
2024-04-24T02:19:51.324Z,9.96
2024-04-24T02:20:22.351Z,9.90
2024-04-24T02:20:53.197Z,9.92
2024-04-24T02:21:23.960Z,9.94
2024-04-24T02:21:54.759Z,9.89
2024-04-24T02:22:25.592Z,9.92
2024-04-24T02:22:57.069Z,9.90
2024-04-24T02:23:31.478Z,9.95
2024-04-24T02:24:02.316Z,9.95
2024-04-24T02:24:51.517Z,9.95
2024-04-24T02:25:34.559Z,9.91
2024-04-24T02:26:08.885Z,9.89
2024-04-24T02:26:39.797Z,9.91
2024-04-24T02:27:10.592Z,9.92
2024-04-24T02:27:41.380Z,9.89
2024-04-24T02:28:12.295Z,9.90
2024-04-24T02:28:43.143Z,9.92
2024-04-24T02:29:14.004Z,9.88
2024-04-24T02:29:51.806Z,9.90
2024-04-24T02:30:27.068Z,9.86
2024-04-24T02:30:57.871Z,9.89
2024-04-24T02:31:28.814Z,9.87
2024-04-24T02:31:59.688Z,9.82
2024-04-24T02:32:30.891Z,9.85
2024-04-24T02:33:02.676Z,9.84
2024-04-24T02:33:33.665Z,9.86
2024-04-24T02:34:04.591Z,9.87
2024-04-24T02:34:35.402Z,9.83
2024-04-24T02:35:06.404Z,9.86
2024-04-24T02:35:37.261Z,9.90
2024-04-24T02:36:08.131Z,9.91
2024-04-24T02:36:38.939Z,9.89
2024-04-24T02:37:09.735Z,9.92
2024-04-24T02:37:40.554Z,9.89
2024-04-24T02:38:11.342Z,9.93
2024-04-24T02:38:42.156Z,9.91
2024-04-24T02:39:13.037Z,9.87
2024-04-24T02:39:43.849Z,9.91
2024-04-24T02:40:14.692Z,9.91
2024-04-24T02:40:45.556Z,9.89
2024-04-24T02:41:16.469Z,9.89
2024-04-24T02:41:47.389Z,9.89
2024-04-24T02:42:18.172Z,9.90
2024-04-24T02:42:49.251Z,9.90
2024-04-24T02:43:20.036Z,9.83
2024-04-24T02:43:50.912Z,9.85
2024-04-24T02:44:21.930Z,9.75
2024-04-24T02:44:52.925Z,9.79
2024-04-24T02:45:23.740Z,9.77
2024-04-24T02:45:54.793Z,9.77
2024-04-24T02:46:25.583Z,9.81
2024-04-24T02:46:56.466Z,9.81
2024-04-24T02:47:27.389Z,9.79
2024-04-24T02:47:58.391Z,9.82
2024-04-24T02:48:29.343Z,9.84
2024-04-24T02:49:00.212Z,9.82
2024-04-24T02:49:31.095Z,9.81
2024-04-24T02:50:01.973Z,9.79
2024-04-24T02:50:32.891Z,9.73
2024-04-24T02:51:03.902Z,9.73
2024-04-24T02:51:34.755Z,9.78
2024-04-24T02:52:05.778Z,9.81
2024-04-24T02:52:36.620Z,9.82
2024-04-24T02:53:07.418Z,9.83
2024-04-24T02:53:38.219Z,9.83
2024-04-24T02:54:09.043Z,9.78
2024-04-24T02:54:39.849Z,9.82
2024-04-24T02:55:10.687Z,9.86
2024-04-24T02:55:41.488Z,9.85
2024-04-24T02:56:12.368Z,9.83
2024-04-24T02:56:43.177Z,9.85
2024-04-24T02:57:13.946Z,9.84
2024-04-24T02:57:45.063Z,9.82
2024-04-24T02:58:15.831Z,9.84
2024-04-24T02:58:46.665Z,9.81
2024-04-24T02:59:17.625Z,9.82
2024-04-24T02:59:48.537Z,9.82
2024-04-24T03:00:19.359Z,9.79
2024-04-24T03:00:50.210Z,9.80
2024-04-24T03:01:21.052Z,9.75
2024-04-24T03:01:51.927Z,9.72
2024-04-24T03:02:22.848Z,9.80
2024-04-24T03:02:53.855Z,9.75
2024-04-24T03:03:24.672Z,9.77
2024-04-24T03:03:56.145Z,9.72
2024-04-24T03:04:26.931Z,9.72
2024-04-24T03:04:57.798Z,9.68
2024-04-24T03:05:28.639Z,9.65
2024-04-24T03:05:59.506Z,9.66
2024-04-24T03:06:30.328Z,9.66
2024-04-24T03:07:01.105Z,9.66
2024-04-24T03:07:31.880Z,9.67
2024-04-24T03:08:02.951Z,9.64
2024-04-24T03:08:33.952Z,9.60
2024-04-24T03:09:04.785Z,9.59
2024-04-24T03:09:35.566Z,9.61
2024-04-24T03:10:06.566Z,9.57
2024-04-24T03:10:37.367Z,9.56
2024-04-24T03:11:08.315Z,9.57
2024-04-24T03:11:39.446Z,9.56
2024-04-24T03:12:10.351Z,9.55
2024-04-24T03:12:41.164Z,9.52
2024-04-24T03:13:11.932Z,9.53
2024-04-24T03:13:42.802Z,9.54
2024-04-24T03:14:18.815Z,9.49
2024-04-24T03:14:49.656Z,9.50
2024-04-24T03:15:20.441Z,9.50
2024-04-24T03:15:51.301Z,9.52
2024-04-24T03:16:31.947Z,9.51
2024-04-24T03:17:02.940Z,9.46
2024-04-24T03:17:36.523Z,9.41
2024-04-24T03:18:08.539Z,9.40
2024-04-24T03:18:42.596Z,9.41
2024-04-24T03:19:13.512Z,9.36
2024-04-24T03:19:44.308Z,9.38
2024-04-24T03:20:15.167Z,9.35
2024-04-24T03:20:46.639Z,9.36
2024-04-24T03:21:21.116Z,9.33
2024-04-24T03:21:51.998Z,9.33
2024-04-24T03:22:22.853Z,9.32
2024-04-24T03:22:53.662Z,9.35
2024-04-24T03:23:24.524Z,9.37
2024-04-24T03:23:55.418Z,9.34
2024-04-24T03:24:27.052Z,9.32
2024-04-24T03:24:58.014Z,9.28
2024-04-24T03:25:28.810Z,9.29
2024-04-24T03:25:59.616Z,9.19
2024-04-24T03:26:30.402Z,9.13
2024-04-24T03:27:01.362Z,9.11
2024-04-24T03:27:32.881Z,9.07
2024-04-24T03:28:04.005Z,9.06
2024-04-24T03:28:34.914Z,9.03
2024-04-24T03:29:05.791Z,9.03
2024-04-24T03:29:38.711Z,8.99
2024-04-24T03:30:09.776Z,9.00
2024-04-24T03:30:40.580Z,8.96
2024-04-24T03:31:11.373Z,8.84
2024-04-24T03:31:42.259Z,8.95
2024-04-24T03:32:13.089Z,8.91
2024-04-24T03:32:44.168Z,8.95
2024-04-24T03:33:15.221Z,8.94
2024-04-24T03:34:13.158Z,8.91
2024-04-24T03:34:46.160Z,8.88
2024-04-24T03:35:16.935Z,8.86
2024-04-24T03:35:47.757Z,8.85
2024-04-24T03:36:18.510Z,8.82
2024-04-24T03:36:49.318Z,8.86
2024-04-24T03:37:20.159Z,8.84
2024-04-24T03:37:50.925Z,8.83
2024-04-24T03:38:21.893Z,8.86
2024-04-24T03:38:53.555Z,8.84
2024-04-24T03:39:24.302Z,8.80
2024-04-24T03:39:55.049Z,8.77
2024-04-24T03:40:25.853Z,8.76
2024-04-24T03:40:56.654Z,8.78
2024-04-24T03:41:27.689Z,8.80
2024-04-24T03:41:58.527Z,8.77
2024-04-24T03:42:29.392Z,8.73
2024-04-24T03:43:00.194Z,8.72
2024-04-24T03:43:31.023Z,8.70
2024-04-24T03:44:01.887Z,8.74
2024-04-24T03:44:32.696Z,8.72
2024-04-24T03:45:03.935Z,8.70
2024-04-24T03:45:34.716Z,8.71
2024-04-24T03:46:05.503Z,8.74
2024-04-24T03:46:36.429Z,8.76
2024-04-24T03:47:07.303Z,8.73
2024-04-24T03:47:38.240Z,8.67
2024-04-24T03:48:09.172Z,8.68
2024-04-24T03:48:41.938Z,8.69
2024-04-24T03:49:13.002Z,8.67
2024-04-24T03:49:43.806Z,8.69
2024-04-24T03:50:14.638Z,8.68
2024-04-24T03:50:45.455Z,8.66
2024-04-24T03:51:16.341Z,8.62
2024-04-24T03:51:47.105Z,8.66
2024-04-24T03:52:19.647Z,8.66
2024-04-24T03:52:50.488Z,8.65
2024-04-24T03:53:22.458Z,8.62
2024-04-24T03:53:53.475Z,8.66
2024-04-24T03:54:24.321Z,8.70
2024-04-24T03:54:55.135Z,8.66
2024-04-24T03:55:25.918Z,8.66
2024-04-24T03:55:56.770Z,8.63
2024-04-24T03:56:27.697Z,8.67
2024-04-24T03:56:58.545Z,8.68
2024-04-24T03:57:29.359Z,8.64
2024-04-24T03:58:00.211Z,8.57
2024-04-24T03:58:31.029Z,8.61
2024-04-24T03:59:02.014Z,8.62
2024-04-24T03:59:32.843Z,8.60
2024-04-24T04:00:03.999Z,8.61
2024-04-24T04:00:34.923Z,8.63
2024-04-24T04:01:05.823Z,8.60
2024-04-24T04:01:36.630Z,8.56
2024-04-24T04:02:07.583Z,8.54
2024-04-24T04:02:38.470Z,8.57
2024-04-24T04:03:09.465Z,8.55
2024-04-24T04:03:40.298Z,8.54
2024-04-24T04:04:11.307Z,8.56
2024-04-24T04:04:42.115Z,8.52
2024-04-24T04:05:13.246Z,8.56
2024-04-24T04:05:44.047Z,8.52
2024-04-24T04:06:14.825Z,8.46
2024-04-24T04:06:45.609Z,8.56
2024-04-24T04:07:16.401Z,8.53
2024-04-24T04:07:47.290Z,8.51
2024-04-24T04:08:19.915Z,8.51
2024-04-24T04:08:50.772Z,8.52
2024-04-24T04:09:21.573Z,8.51
2024-04-24T04:09:52.349Z,8.51
2024-04-24T04:10:23.102Z,8.53
2024-04-24T04:10:53.982Z,8.50
2024-04-24T04:11:24.948Z,8.46
2024-04-24T04:11:55.883Z,8.52
2024-04-24T04:12:26.825Z,8.52
2024-04-24T04:12:57.675Z,8.55
2024-04-24T04:13:28.459Z,8.55
2024-04-24T04:13:59.297Z,8.56
2024-04-24T04:14:30.186Z,8.53
2024-04-24T04:15:01.038Z,8.49
2024-04-24T04:15:31.875Z,8.53
2024-04-24T04:16:02.838Z,8.55
2024-04-24T04:16:33.878Z,8.54
2024-04-24T04:17:04.925Z,8.60
2024-04-24T04:17:36.591Z,8.54
2024-04-24T04:18:07.482Z,8.54
2024-04-24T04:18:38.363Z,8.57
2024-04-24T04:19:09.212Z,8.54
2024-04-24T04:19:40.020Z,8.49
2024-04-24T04:20:11.116Z,8.60
2024-04-24T04:20:41.874Z,8.60
2024-04-24T04:21:12.710Z,8.62
2024-04-24T04:21:43.590Z,8.64
2024-04-24T04:22:17.108Z,8.63
2024-04-24T04:22:47.979Z,8.64
2024-04-24T04:23:18.975Z,8.64
2024-04-24T04:23:49.763Z,8.62
2024-04-24T04:24:20.584Z,8.67
2024-04-24T04:24:51.389Z,8.65
2024-04-24T04:25:22.159Z,8.64
2024-04-24T04:25:53.017Z,8.63
2024-04-24T04:26:24.503Z,8.62
2024-04-24T04:26:55.308Z,8.65
2024-04-24T04:27:27.131Z,8.69
2024-04-24T04:27:58.805Z,8.69
2024-04-24T04:28:29.612Z,8.62
2024-04-24T04:29:00.454Z,8.62
2024-04-24T04:29:31.296Z,8.65
2024-04-24T04:30:02.355Z,8.68
2024-04-24T04:30:33.126Z,8.70
2024-04-24T04:31:03.903Z,8.70
2024-04-24T04:31:34.664Z,8.71
2024-04-24T04:32:05.526Z,8.69
2024-04-24T04:32:36.523Z,8.71
2024-04-24T04:33:07.585Z,8.67
2024-04-24T04:34:21.565Z,8.60
2024-04-24T04:34:52.757Z,8.62
2024-04-24T04:35:23.613Z,8.55
2024-04-24T04:35:54.575Z,8.56
2024-04-24T04:36:25.359Z,8.55
2024-04-24T04:36:56.165Z,8.50
2024-04-24T04:37:26.918Z,8.45
2024-04-24T04:37:57.723Z,8.41
2024-04-24T04:38:28.539Z,8.40
2024-04-24T04:38:59.421Z,8.40
2024-04-24T04:39:30.287Z,8.38
2024-04-24T04:40:02.437Z,8.36
2024-04-24T04:40:33.197Z,8.35
2024-04-24T04:41:04.028Z,8.38
2024-04-24T04:41:34.862Z,8.35
2024-04-24T04:42:05.727Z,8.38
2024-04-24T04:42:36.516Z,8.42
2024-04-24T04:43:07.456Z,8.41
2024-04-24T04:43:38.296Z,8.37
2024-04-24T04:44:09.259Z,8.34
2024-04-24T04:44:40.054Z,8.29
2024-04-24T04:45:10.993Z,8.27
2024-04-24T04:45:41.860Z,8.26
2024-04-24T04:46:12.709Z,8.22
2024-04-24T04:46:43.643Z,8.28
2024-04-24T04:47:14.532Z,8.24
2024-04-24T04:47:45.754Z,8.25
2024-04-24T04:48:16.740Z,8.09
2024-04-24T04:48:50.216Z,8.12
2024-04-24T04:49:22.667Z,8.11
2024-04-24T04:49:53.486Z,8.06
2024-04-24T04:50:24.502Z,8.03
2024-04-24T04:50:55.977Z,7.98
2024-04-24T04:51:26.763Z,7.97
2024-04-24T04:51:57.572Z,7.91
2024-04-24T04:52:30.111Z,7.91
2024-04-24T04:53:00.989Z,7.87
2024-04-24T04:53:31.789Z,7.89
2024-04-24T04:54:03.116Z,7.86
2024-04-24T04:54:33.980Z,7.82
2024-04-24T04:55:05.144Z,7.84
2024-04-24T04:55:35.952Z,7.85
2024-04-24T04:56:08.386Z,7.85
2024-04-24T04:56:39.824Z,7.85
2024-04-24T04:57:10.618Z,7.79
2024-04-24T04:57:41.594Z,7.76
2024-04-24T04:58:12.429Z,7.78
2024-04-24T04:58:43.203Z,7.74
2024-04-24T04:59:14.143Z,7.73
2024-04-24T04:59:45.165Z,7.75
2024-04-24T05:00:16.192Z,7.74
2024-04-24T05:00:47.008Z,7.76
2024-04-24T05:01:17.886Z,7.76
2024-04-24T05:01:48.699Z,7.71
2024-04-24T05:02:20.987Z,7.70
2024-04-24T05:02:52.158Z,7.70
2024-04-24T05:03:23.068Z,7.70
2024-04-24T05:03:53.911Z,7.66
2024-04-24T05:04:24.834Z,7.65
2024-04-24T05:04:55.695Z,7.66
2024-04-24T05:05:26.630Z,7.65
2024-04-24T05:05:57.499Z,7.68
2024-04-24T05:06:28.435Z,7.66
2024-04-24T05:06:59.214Z,7.63
2024-04-24T05:07:30.036Z,7.66
2024-04-24T05:08:00.857Z,7.70
2024-04-24T05:08:31.760Z,7.68
2024-04-24T05:09:03.054Z,7.68
2024-04-24T05:09:35.481Z,7.67
2024-04-24T05:10:06.454Z,7.72
2024-04-24T05:10:37.571Z,7.74
2024-04-24T05:11:08.454Z,7.73
2024-04-24T05:11:39.412Z,7.76
2024-04-24T05:12:10.229Z,7.67
2024-04-24T05:12:41.038Z,7.70
2024-04-24T05:13:16.228Z,7.69
2024-04-24T05:13:47.013Z,7.68
2024-04-24T05:14:18.008Z,7.67
2024-04-24T05:14:50.937Z,7.68
2024-04-24T05:15:21.729Z,7.62
2024-04-24T05:15:52.550Z,7.63
2024-04-24T05:16:23.358Z,7.59
2024-04-24T05:16:54.343Z,7.55
2024-04-24T05:17:25.294Z,7.50
2024-04-24T05:17:56.403Z,7.51
2024-04-24T05:18:27.522Z,7.59
2024-04-24T05:18:58.375Z,7.62
2024-04-24T05:19:29.228Z,7.59
2024-04-24T05:20:00.047Z,7.60
2024-04-24T05:20:30.917Z,7.57
2024-04-24T05:21:01.952Z,7.50
2024-04-24T05:21:32.793Z,7.47
2024-04-24T05:22:03.621Z,7.52
2024-04-24T05:22:46.499Z,7.52
2024-04-24T05:23:17.293Z,7.52
2024-04-24T05:23:48.108Z,7.52
2024-04-24T05:24:18.924Z,7.56
2024-04-24T05:24:49.788Z,7.49
2024-04-24T05:25:21.787Z,7.54
2024-04-24T05:25:55.135Z,7.52
2024-04-24T05:26:44.360Z,7.48
2024-04-24T05:27:34.078Z,7.45
2024-04-24T05:28:26.744Z,7.50
2024-04-24T05:29:10.706Z,7.56
2024-04-24T05:29:41.560Z,7.47
2024-04-24T05:30:12.428Z,7.51
2024-04-24T05:30:43.347Z,7.50
2024-04-24T05:31:14.182Z,7.50
2024-04-24T05:31:45.141Z,7.51
2024-04-24T05:32:15.990Z,7.52
2024-04-24T05:32:49.694Z,7.51
2024-04-24T05:33:20.625Z,7.47
2024-04-24T05:33:51.568Z,7.49
2024-04-24T05:34:23.498Z,7.46
2024-04-24T05:34:55.241Z,7.39
2024-04-24T05:35:26.217Z,7.33
2024-04-24T05:35:57.085Z,7.44
2024-04-24T05:36:28.089Z,7.48
2024-04-24T05:36:58.886Z,7.46
2024-04-24T05:37:29.659Z,7.49
2024-04-24T05:38:00.597Z,7.46
2024-04-24T05:38:31.527Z,7.50
2024-04-24T05:39:02.601Z,7.47
2024-04-24T05:39:33.363Z,7.47
2024-04-24T05:40:04.741Z,7.42
2024-04-24T05:40:35.735Z,7.45
2024-04-24T05:41:06.542Z,7.49
2024-04-24T05:42:23.145Z,7.49
2024-04-24T05:42:54.132Z,7.53
2024-04-24T05:43:24.942Z,7.46
2024-04-24T05:43:55.821Z,7.49
2024-04-24T05:44:28.066Z,7.50
2024-04-24T05:44:58.921Z,7.53
2024-04-24T05:45:29.725Z,7.56
2024-04-24T05:46:00.542Z,7.52
2024-04-24T05:46:31.315Z,7.51
2024-04-24T05:47:03.231Z,7.44
2024-04-24T05:47:34.148Z,7.36
2024-04-24T05:48:05.414Z,7.47
2024-04-24T05:48:36.357Z,7.52
2024-04-24T05:49:07.174Z,7.52
2024-04-24T05:49:38.022Z,7.59
2024-04-24T05:50:08.904Z,7.59
2024-04-24T05:50:39.830Z,7.54
2024-04-24T05:51:10.614Z,7.60
2024-04-24T05:51:41.997Z,7.59
2024-04-24T05:52:12.899Z,7.52
2024-04-24T05:52:43.699Z,7.56
2024-04-24T05:53:14.517Z,7.58
2024-04-24T05:53:45.458Z,7.61
2024-04-24T05:54:16.282Z,7.66
2024-04-24T05:54:47.043Z,7.62
2024-04-24T05:55:18.063Z,7.64
2024-04-24T05:55:49.004Z,7.65
2024-04-24T05:56:19.838Z,7.54
2024-04-24T05:56:50.672Z,7.52
2024-04-24T05:57:25.255Z,7.49
2024-04-24T05:57:57.385Z,7.43
2024-04-24T05:58:28.178Z,7.41
2024-04-24T05:58:59.003Z,7.42
2024-04-24T05:59:29.883Z,7.44
2024-04-24T06:00:00.736Z,7.48
2024-04-24T06:00:31.518Z,7.53
2024-04-24T06:01:02.508Z,7.57
2024-04-24T06:01:33.362Z,7.53
2024-04-24T06:02:04.208Z,7.44
2024-04-24T06:02:35.307Z,7.48
2024-04-24T06:03:08.782Z,7.54
2024-04-24T06:03:39.662Z,7.60
2024-04-24T06:04:10.462Z,7.61
2024-04-24T06:04:41.404Z,7.55
2024-04-24T06:05:12.699Z,7.60
2024-04-24T06:05:43.564Z,7.61
2024-04-24T06:06:14.382Z,7.62
2024-04-24T06:06:45.169Z,7.61
2024-04-24T06:07:15.927Z,7.62
2024-04-24T06:07:46.689Z,7.63
2024-04-24T06:08:17.502Z,7.68
2024-04-24T06:08:48.307Z,7.64
2024-04-24T06:09:19.130Z,7.50
2024-04-24T06:09:49.889Z,7.54
2024-04-24T06:10:20.668Z,7.44
2024-04-24T06:10:52.827Z,7.43
2024-04-24T06:11:23.783Z,7.51
2024-04-24T06:11:54.783Z,7.53
2024-04-24T06:12:25.793Z,7.53
2024-04-24T06:12:56.648Z,7.53
2024-04-24T06:13:27.436Z,7.59
2024-04-24T06:13:58.221Z,7.59
2024-04-24T06:14:30.113Z,7.54
2024-04-24T06:15:00.925Z,7.57
2024-04-24T06:15:35.273Z,7.50
2024-04-24T06:16:06.942Z,7.55
2024-04-24T06:16:37.724Z,7.60
2024-04-24T06:17:09.410Z,7.65
2024-04-24T06:17:40.429Z,7.71
2024-04-24T06:18:12.686Z,7.71
2024-04-24T06:18:44.533Z,7.72
2024-04-24T06:19:15.417Z,7.70
2024-04-24T06:19:46.271Z,7.60
2024-04-24T06:20:17.644Z,7.62
2024-04-24T06:20:48.553Z,7.70
2024-04-24T06:21:19.332Z,7.70
2024-04-24T06:21:50.138Z,7.68
2024-04-24T06:22:20.996Z,7.62
2024-04-24T06:22:51.818Z,7.72
2024-04-24T06:23:22.717Z,7.75
2024-04-24T06:23:53.608Z,7.77
2024-04-24T06:24:24.400Z,7.77
2024-04-24T06:24:55.244Z,7.74
2024-04-24T06:25:25.995Z,7.75
2024-04-24T06:25:56.832Z,7.73
2024-04-24T06:26:27.651Z,7.74
2024-04-24T06:26:58.467Z,7.75
2024-04-24T06:27:29.738Z,7.78
2024-04-24T06:28:00.733Z,7.75
2024-04-24T06:28:31.528Z,7.79
2024-04-24T06:29:02.359Z,7.82
2024-04-24T06:29:33.250Z,7.78
2024-04-24T06:30:05.421Z,7.77
2024-04-24T06:30:36.291Z,7.80
2024-04-24T06:31:07.155Z,7.70
2024-04-24T06:31:38.230Z,7.75
2024-04-24T06:32:09.162Z,7.68
2024-04-24T06:32:40.095Z,7.74
2024-04-24T06:33:11.118Z,7.77
2024-04-24T06:33:42.018Z,7.70
2024-04-24T06:34:12.866Z,7.61
2024-04-24T06:34:43.717Z,7.68
2024-04-24T06:35:17.502Z,7.59
2024-04-24T06:35:48.401Z,7.60
2024-04-24T06:36:19.224Z,7.62
2024-04-24T06:36:50.026Z,7.61
2024-04-24T06:37:20.902Z,7.63
2024-04-24T06:37:53.477Z,7.55
2024-04-24T06:38:24.394Z,7.52
2024-04-24T06:38:55.412Z,7.51
2024-04-24T06:39:26.206Z,7.51
2024-04-24T06:39:56.969Z,7.55
2024-04-24T06:40:27.726Z,7.56
2024-04-24T06:40:58.544Z,7.61
2024-04-24T06:41:29.557Z,7.62
2024-04-24T06:42:00.388Z,7.52
2024-04-24T06:42:31.200Z,7.55
2024-04-24T06:43:02.588Z,7.55
2024-04-24T06:43:33.392Z,7.60
2024-04-24T06:44:04.268Z,7.55
2024-04-24T06:44:35.422Z,7.61
2024-04-24T06:45:06.368Z,7.67
2024-04-24T06:45:38.267Z,7.62
2024-04-24T06:46:09.338Z,7.65
2024-04-24T06:46:40.656Z,7.67
2024-04-24T06:47:11.466Z,7.64
2024-04-24T06:47:42.421Z,7.65
2024-04-24T06:48:13.926Z,7.59
2024-04-24T06:48:44.941Z,7.63
2024-04-24T06:49:15.786Z,7.62
2024-04-24T06:49:49.216Z,7.62
2024-04-24T06:50:20.117Z,7.57
2024-04-24T06:50:50.951Z,7.60
2024-04-24T06:51:23.850Z,7.69
2024-04-24T06:51:55.082Z,7.75
2024-04-24T06:52:25.826Z,7.63
2024-04-24T06:52:56.821Z,7.55
2024-04-24T06:53:30.065Z,7.55
2024-04-24T06:54:02.452Z,7.61
2024-04-24T06:54:33.247Z,7.67
2024-04-24T06:55:04.371Z,7.63
2024-04-24T06:55:36.666Z,7.55
2024-04-24T06:56:07.562Z,7.61
2024-04-24T06:56:38.383Z,7.52
2024-04-24T06:57:11.373Z,7.55
2024-04-24T06:57:42.166Z,7.58
2024-04-24T06:58:13.039Z,7.63
2024-04-24T06:58:43.833Z,7.67
2024-04-24T06:59:14.822Z,7.73
2024-04-24T06:59:45.738Z,7.70